sensor_id;sensor_type;location;lat;lon;timestamp;temperature;humidity
9971;DHT22;5026;51.494;11.974;2024-03-06T00:01:08;3.70;99.90
9971;DHT22;5026;51.494;11.974;2024-03-06T00:03:35;3.70;99.90
9971;DHT22;5026;51.494;11.974;2024-03-06T00:06:02;3.70;99.90
9971;DHT22;5026;51.494;11.974;2024-03-06T00:08:30;3.60;99.90
9971;DHT22;5026;51.494;11.974;2024-03-06T00:10:57;3.60;99.90
9971;DHT22;5026;51.494;11.974;2024-03-06T00:13:24;3.70;99.90
9971;DHT22;5026;51.494;11.974;2024-03-06T00:15:51;3.60;99.90
9971;DHT22;5026;51.494;11.974;2024-03-06T00:18:18;3.60;99.90
9971;DHT22;5026;51.494;11.974;2024-03-06T00:20:45;3.50;99.90
9971;DHT22;5026;51.494;11.974;2024-03-06T00:23:11;3.50;99.90
9971;DHT22;5026;51.494;11.974;2024-03-06T00:25:40;3.60;99.90
9971;DHT22;5026;51.494;11.974;2024-03-06T00:28:06;3.50;99.90
9971;DHT22;5026;51.494;11.974;2024-03-06T00:30:33;3.50;99.90
9971;DHT22;5026;51.494;11.974;2024-03-06T00:33:00;3.50;99.90
9971;DHT22;5026;51.494;11.974;2024-03-06T00:35:27;3.50;99.90
9971;DHT22;5026;51.494;11.974;2024-03-06T00:37:55;3.50;99.90
9971;DHT22;5026;51.494;11.974;2024-03-06T00:40:21;3.50;99.90
9971;DHT22;5026;51.494;11.974;2024-03-06T00:42:50;3.50;99.90
9971;DHT22;5026;51.494;11.974;2024-03-06T00:45:17;3.40;99.90
9971;DHT22;5026;51.494;11.974;2024-03-06T00:47:44;3.40;99.90
9971;DHT22;5026;51.494;11.974;2024-03-06T00:50:11;3.40;99.90
9971;DHT22;5026;51.494;11.974;2024-03-06T00:52:37;3.40;99.90
9971;DHT22;5026;51.494;11.974;2024-03-06T00:55:05;3.40;99.90
9971;DHT22;5026;51.494;11.974;2024-03-06T00:57:32;3.30;99.90
9971;DHT22;5026;51.494;11.974;2024-03-06T01:00:01;3.30;99.90
9971;DHT22;5026;51.494;11.974;2024-03-06T01:02:31;3.30;99.90
9971;DHT22;5026;51.494;11.974;2024-03-06T01:04:58;3.30;99.90
9971;DHT22;5026;51.494;11.974;2024-03-06T01:07:25;3.20;99.90
9971;DHT22;5026;51.494;11.974;2024-03-06T01:09:52;3.20;99.90
9971;DHT22;5026;51.494;11.974;2024-03-06T01:12:18;3.20;99.90
9971;DHT22;5026;51.494;11.974;2024-03-06T01:14:45;3.20;99.90
9971;DHT22;5026;51.494;11.974;2024-03-06T01:17:14;3.20;99.90
9971;DHT22;5026;51.494;11.974;2024-03-06T01:19:40;3.20;99.90
9971;DHT22;5026;51.494;11.974;2024-03-06T01:22:08;3.20;99.90
9971;DHT22;5026;51.494;11.974;2024-03-06T01:24:35;3.10;99.90
9971;DHT22;5026;51.494;11.974;2024-03-06T01:27:02;3.20;99.90
9971;DHT22;5026;51.494;11.974;2024-03-06T01:29:29;3.10;99.90
9971;DHT22;5026;51.494;11.974;2024-03-06T01:31:56;3.10;99.90
9971;DHT22;5026;51.494;11.974;2024-03-06T01:34:24;3.10;99.90
9971;DHT22;5026;51.494;11.974;2024-03-06T01:36:51;3.00;99.90
9971;DHT22;5026;51.494;11.974;2024-03-06T01:39:19;3.00;99.90
9971;DHT22;5026;51.494;11.974;2024-03-06T01:41:46;3.00;99.90
9971;DHT22;5026;51.494;11.974;2024-03-06T01:44:13;3.00;99.90
9971;DHT22;5026;51.494;11.974;2024-03-06T01:46:40;3.00;99.90
9971;DHT22;5026;51.494;11.974;2024-03-06T01:49:07;3.00;99.90
9971;DHT22;5026;51.494;11.974;2024-03-06T01:51:36;3.00;99.90
9971;DHT22;5026;51.494;11.974;2024-03-06T01:54:03;3.10;99.90
9971;DHT22;5026;51.494;11.974;2024-03-06T01:56:32;3.10;99.90
9971;DHT22;5026;51.494;11.974;2024-03-06T01:59:00;3.20;99.90
9971;DHT22;5026;51.494;11.974;2024-03-06T02:01:30;3.20;99.90
9971;DHT22;5026;51.494;11.974;2024-03-06T02:03:58;3.20;99.90
9971;DHT22;5026;51.494;11.974;2024-03-06T02:06:25;3.30;99.90
9971;DHT22;5026;51.494;11.974;2024-03-06T02:08:54;3.30;99.90
9971;DHT22;5026;51.494;11.974;2024-03-06T02:11:21;3.30;99.90
9971;DHT22;5026;51.494;11.974;2024-03-06T02:13:49;3.30;99.90
9971;DHT22;5026;51.494;11.974;2024-03-06T02:16:16;3.30;99.90
9971;DHT22;5026;51.494;11.974;2024-03-06T02:18:51;3.30;99.90
9971;DHT22;5026;51.494;11.974;2024-03-06T02:21:20;3.30;99.90
9971;DHT22;5026;51.494;11.974;2024-03-06T02:23:47;3.30;99.90
9971;DHT22;5026;51.494;11.974;2024-03-06T02:26:16;3.30;99.90
9971;DHT22;5026;51.494;11.974;2024-03-06T02:28:46;3.20;99.90
9971;DHT22;5026;51.494;11.974;2024-03-06T02:31:13;3.20;99.90
9971;DHT22;5026;51.494;11.974;2024-03-06T02:33:40;3.20;99.90
9971;DHT22;5026;51.494;11.974;2024-03-06T02:36:07;3.20;99.90
9971;DHT22;5026;51.494;11.974;2024-03-06T02:38:35;3.10;99.90
9971;DHT22;5026;51.494;11.974;2024-03-06T02:41:03;3.10;99.90
9971;DHT22;5026;51.494;11.974;2024-03-06T02:43:32;3.10;99.90
9971;DHT22;5026;51.494;11.974;2024-03-06T02:45:59;3.10;99.90
9971;DHT22;5026;51.494;11.974;2024-03-06T02:48:26;3.10;99.90
9971;DHT22;5026;51.494;11.974;2024-03-06T02:50:53;3.10;99.90
9971;DHT22;5026;51.494;11.974;2024-03-06T02:53:19;3.10;99.90
9971;DHT22;5026;51.494;11.974;2024-03-06T02:55:48;3.10;99.90
9971;DHT22;5026;51.494;11.974;2024-03-06T02:58:15;3.10;99.90
9971;DHT22;5026;51.494;11.974;2024-03-06T03:00:43;3.10;99.90
9971;DHT22;5026;51.494;11.974;2024-03-06T03:03:10;3.00;99.90
9971;DHT22;5026;51.494;11.974;2024-03-06T03:05:37;3.00;99.90
9971;DHT22;5026;51.494;11.974;2024-03-06T03:08:05;3.00;99.90
9971;DHT22;5026;51.494;11.974;2024-03-06T03:10:32;3.00;99.90
9971;DHT22;5026;51.494;11.974;2024-03-06T03:13:01;3.00;99.90
9971;DHT22;5026;51.494;11.974;2024-03-06T03:15:30;3.00;99.90
9971;DHT22;5026;51.494;11.974;2024-03-06T03:17:58;3.00;99.90
9971;DHT22;5026;51.494;11.974;2024-03-06T03:20:25;3.00;99.90
9971;DHT22;5026;51.494;11.974;2024-03-06T03:22:53;3.00;99.90
9971;DHT22;5026;51.494;11.974;2024-03-06T03:25:20;3.00;99.90
9971;DHT22;5026;51.494;11.974;2024-03-06T03:27:47;3.00;99.90
9971;DHT22;5026;51.494;11.974;2024-03-06T03:30:17;2.90;99.90
9971;DHT22;5026;51.494;11.974;2024-03-06T03:32:47;2.90;99.90
9971;DHT22;5026;51.494;11.974;2024-03-06T03:35:14;2.90;99.90
9971;DHT22;5026;51.494;11.974;2024-03-06T03:37:42;2.90;99.90
9971;DHT22;5026;51.494;11.974;2024-03-06T03:40:09;2.80;99.90
9971;DHT22;5026;51.494;11.974;2024-03-06T03:42:37;2.80;99.90
9971;DHT22;5026;51.494;11.974;2024-03-06T03:45:05;2.70;99.90
9971;DHT22;5026;51.494;11.974;2024-03-06T03:47:33;2.70;99.90
9971;DHT22;5026;51.494;11.974;2024-03-06T03:50:00;2.70;99.90
9971;DHT22;5026;51.494;11.974;2024-03-06T03:52:27;2.60;99.90
9971;DHT22;5026;51.494;11.974;2024-03-06T03:54:54;2.60;99.90
9971;DHT22;5026;51.494;11.974;2024-03-06T03:57:22;2.60;99.90
9971;DHT22;5026;51.494;11.974;2024-03-06T03:59:48;2.50;99.90
9971;DHT22;5026;51.494;11.974;2024-03-06T04:02:16;2.50;99.90
9971;DHT22;5026;51.494;11.974;2024-03-06T04:04:45;2.50;99.90
9971;DHT22;5026;51.494;11.974;2024-03-06T04:07:12;2.50;99.90
9971;DHT22;5026;51.494;11.974;2024-03-06T04:09:41;2.40;99.90
9971;DHT22;5026;51.494;11.974;2024-03-06T04:12:08;2.50;99.90
9971;DHT22;5026;51.494;11.974;2024-03-06T04:14:36;4.60;99.90
9971;DHT22;5026;51.494;11.974;2024-03-06T04:17:02;2.40;99.90
9971;DHT22;5026;51.494;11.974;2024-03-06T04:19:31;2.30;99.90
9971;DHT22;5026;51.494;11.974;2024-03-06T04:21:59;2.30;99.90
9971;DHT22;5026;51.494;11.974;2024-03-06T04:24:26;2.70;99.90
9971;DHT22;5026;51.494;11.974;2024-03-06T04:26:53;3.30;99.90
9971;DHT22;5026;51.494;11.974;2024-03-06T04:29:20;2.30;99.90
9971;DHT22;5026;51.494;11.974;2024-03-06T04:31:47;2.20;99.90
9971;DHT22;5026;51.494;11.974;2024-03-06T04:34:14;2.20;99.90
9971;DHT22;5026;51.494;11.974;2024-03-06T04:36:40;2.60;99.90
9971;DHT22;5026;51.494;11.974;2024-03-06T04:39:09;2.20;99.90
9971;DHT22;5026;51.494;11.974;2024-03-06T04:41:36;3.20;99.90
9971;DHT22;5026;51.494;11.974;2024-03-06T04:44:03;2.10;99.90
9971;DHT22;5026;51.494;11.974;2024-03-06T04:46:30;2.10;99.90
9971;DHT22;5026;51.494;11.974;2024-03-06T04:48:57;2.00;99.90
9971;DHT22;5026;51.494;11.974;2024-03-06T04:51:23;2.00;99.90
9971;DHT22;5026;51.494;11.974;2024-03-06T04:53:50;1.90;99.90
9971;DHT22;5026;51.494;11.974;2024-03-06T04:56:19;2.50;99.90
9971;DHT22;5026;51.494;11.974;2024-03-06T04:58:47;1.90;99.90
9971;DHT22;5026;51.494;11.974;2024-03-06T05:01:14;1.80;99.90
9971;DHT22;5026;51.494;11.974;2024-03-06T05:03:41;1.80;99.90
9971;DHT22;5026;51.494;11.974;2024-03-06T05:06:08;1.80;99.90
9971;DHT22;5026;51.494;11.974;2024-03-06T05:08:35;1.80;99.90
9971;DHT22;5026;51.494;11.974;2024-03-06T05:11:03;1.80;99.90
9971;DHT22;5026;51.494;11.974;2024-03-06T05:13:32;1.70;99.90
9971;DHT22;5026;51.494;11.974;2024-03-06T05:15:58;1.70;99.90
9971;DHT22;5026;51.494;11.974;2024-03-06T05:18:25;1.70;99.90
9971;DHT22;5026;51.494;11.974;2024-03-06T05:20:52;1.70;99.90
9971;DHT22;5026;51.494;11.974;2024-03-06T05:23:20;1.60;99.90
9971;DHT22;5026;51.494;11.974;2024-03-06T05:25:47;1.60;99.90
9971;DHT22;5026;51.494;11.974;2024-03-06T05:28:14;1.90;99.90
9971;DHT22;5026;51.494;11.974;2024-03-06T05:30:43;1.60;99.90
9971;DHT22;5026;51.494;11.974;2024-03-06T05:33:10;3.00;99.90
9971;DHT22;5026;51.494;11.974;2024-03-06T05:35:37;1.50;99.90
9971;DHT22;5026;51.494;11.974;2024-03-06T05:38:04;1.60;99.90
9971;DHT22;5026;51.494;11.974;2024-03-06T05:40:32;1.50;99.90
9971;DHT22;5026;51.494;11.974;2024-03-06T05:43:03;1.50;99.90
9971;DHT22;5026;51.494;11.974;2024-03-06T05:48:00;1.50;99.90
9971;DHT22;5026;51.494;11.974;2024-03-06T05:50:29;1.50;99.90
9971;DHT22;5026;51.494;11.974;2024-03-06T05:52:57;1.50;99.90
9971;DHT22;5026;51.494;11.974;2024-03-06T05:55:25;1.50;99.90
9971;DHT22;5026;51.494;11.974;2024-03-06T05:57:52;1.40;99.90
9971;DHT22;5026;51.494;11.974;2024-03-06T06:00:19;1.40;99.90
9971;DHT22;5026;51.494;11.974;2024-03-06T06:02:47;1.40;99.90
9971;DHT22;5026;51.494;11.974;2024-03-06T06:05:16;1.50;99.90
9971;DHT22;5026;51.494;11.974;2024-03-06T06:07:45;1.50;99.90
9971;DHT22;5026;51.494;11.974;2024-03-06T06:10:12;1.50;99.90
9971;DHT22;5026;51.494;11.974;2024-03-06T06:12:39;1.50;99.90
9971;DHT22;5026;51.494;11.974;2024-03-06T06:15:07;1.50;99.90
9971;DHT22;5026;51.494;11.974;2024-03-06T06:17:34;1.50;99.90
9971;DHT22;5026;51.494;11.974;2024-03-06T06:20:03;1.50;99.90
9971;DHT22;5026;51.494;11.974;2024-03-06T06:22:36;1.50;99.90
9971;DHT22;5026;51.494;11.974;2024-03-06T06:25:04;1.60;99.90
9971;DHT22;5026;51.494;11.974;2024-03-06T06:27:33;1.60;99.90
9971;DHT22;5026;51.494;11.974;2024-03-06T06:29:59;1.70;99.90
9971;DHT22;5026;51.494;11.974;2024-03-06T06:32:26;1.70;99.90
9971;DHT22;5026;51.494;11.974;2024-03-06T06:34:53;1.80;99.90
9971;DHT22;5026;51.494;11.974;2024-03-06T06:37:21;1.90;99.90
9971;DHT22;5026;51.494;11.974;2024-03-06T06:39:50;1.90;99.90
9971;DHT22;5026;51.494;11.974;2024-03-06T06:42:16;1.90;99.90
9971;DHT22;5026;51.494;11.974;2024-03-06T06:44:43;2.00;99.90
9971;DHT22;5026;51.494;11.974;2024-03-06T06:47:10;2.00;99.90
9971;DHT22;5026;51.494;11.974;2024-03-06T06:49:37;2.10;99.90
9971;DHT22;5026;51.494;11.974;2024-03-06T06:52:04;2.20;99.90
9971;DHT22;5026;51.494;11.974;2024-03-06T06:54:31;2.70;99.90
9971;DHT22;5026;51.494;11.974;2024-03-06T06:56:59;2.20;99.90
9971;DHT22;5026;51.494;11.974;2024-03-06T06:59:26;2.30;99.90
9971;DHT22;5026;51.494;11.974;2024-03-06T07:01:53;2.40;99.90
9971;DHT22;5026;51.494;11.974;2024-03-06T07:04:21;2.40;99.90
9971;DHT22;5026;51.494;11.974;2024-03-06T07:06:49;2.50;99.90
9971;DHT22;5026;51.494;11.974;2024-03-06T07:09:16;2.60;99.90
9971;DHT22;5026;51.494;11.974;2024-03-06T07:11:44;2.60;99.90
9971;DHT22;5026;51.494;11.974;2024-03-06T07:14:12;2.70;99.90
9971;DHT22;5026;51.494;11.974;2024-03-06T07:16:42;2.70;99.90
9971;DHT22;5026;51.494;11.974;2024-03-06T07:19:09;2.60;99.90
9971;DHT22;5026;51.494;11.974;2024-03-06T07:21:36;2.70;99.90
9971;DHT22;5026;51.494;11.974;2024-03-06T07:24:04;2.70;99.90
9971;DHT22;5026;51.494;11.974;2024-03-06T07:26:32;2.70;99.90
9971;DHT22;5026;51.494;11.974;2024-03-06T07:28:59;2.80;99.90
9971;DHT22;5026;51.494;11.974;2024-03-06T07:31:28;3.00;99.90
9971;DHT22;5026;51.494;11.974;2024-03-06T07:33:58;3.10;99.90
9971;DHT22;5026;51.494;11.974;2024-03-06T07:36:25;3.30;99.90
9971;DHT22;5026;51.494;11.974;2024-03-06T07:38:52;3.30;99.90
9971;DHT22;5026;51.494;11.974;2024-03-06T07:41:20;3.90;99.90
9971;DHT22;5026;51.494;11.974;2024-03-06T07:43:49;5.20;99.90
9971;DHT22;5026;51.494;11.974;2024-03-06T07:46:16;5.50;99.90
9971;DHT22;5026;51.494;11.974;2024-03-06T07:48:44;5.70;99.90
9971;DHT22;5026;51.494;11.974;2024-03-06T07:51:11;6.90;99.90
9971;DHT22;5026;51.494;11.974;2024-03-06T07:53:39;6.50;99.90
9971;DHT22;5026;51.494;11.974;2024-03-06T07:56:07;6.30;99.90
9971;DHT22;5026;51.494;11.974;2024-03-06T07:58:36;6.50;99.90
9971;DHT22;5026;51.494;11.974;2024-03-06T08:01:04;6.80;99.90
9971;DHT22;5026;51.494;11.974;2024-03-06T08:03:31;7.20;99.90
9971;DHT22;5026;51.494;11.974;2024-03-06T08:06:01;7.20;99.90
9971;DHT22;5026;51.494;11.974;2024-03-06T08:08:29;7.00;99.90
9971;DHT22;5026;51.494;11.974;2024-03-06T08:10:56;6.60;99.90
9971;DHT22;5026;51.494;11.974;2024-03-06T08:13:23;7.60;99.90
9971;DHT22;5026;51.494;11.974;2024-03-06T08:15:50;7.10;99.90
9971;DHT22;5026;51.494;11.974;2024-03-06T08:18:18;7.30;99.90
9971;DHT22;5026;51.494;11.974;2024-03-06T08:20:45;7.50;99.90
9971;DHT22;5026;51.494;11.974;2024-03-06T08:23:14;7.50;99.90
9971;DHT22;5026;51.494;11.974;2024-03-06T08:25:40;7.40;99.90
9971;DHT22;5026;51.494;11.974;2024-03-06T08:28:07;6.80;99.90
9971;DHT22;5026;51.494;11.974;2024-03-06T08:30:35;6.70;99.90
9971;DHT22;5026;51.494;11.974;2024-03-06T08:33:02;6.80;99.90
9971;DHT22;5026;51.494;11.974;2024-03-06T08:35:29;6.70;99.90
9971;DHT22;5026;51.494;11.974;2024-03-06T08:37:57;6.60;99.90
9971;DHT22;5026;51.494;11.974;2024-03-06T08:40:26;6.70;99.90
9971;DHT22;5026;51.494;11.974;2024-03-06T08:42:53;6.80;99.90
9971;DHT22;5026;51.494;11.974;2024-03-06T08:45:22;6.70;99.90
9971;DHT22;5026;51.494;11.974;2024-03-06T08:47:49;6.90;99.90
9971;DHT22;5026;51.494;11.974;2024-03-06T08:50:19;7.00;99.90
9971;DHT22;5026;51.494;11.974;2024-03-06T08:52:46;6.80;99.90
9971;DHT22;5026;51.494;11.974;2024-03-06T08:55:13;6.70;99.90
9971;DHT22;5026;51.494;11.974;2024-03-06T08:57:42;6.40;99.90
9971;DHT22;5026;51.494;11.974;2024-03-06T09:00:10;6.20;99.90
9971;DHT22;5026;51.494;11.974;2024-03-06T09:02:37;6.20;99.90
9971;DHT22;5026;51.494;11.974;2024-03-06T09:05:06;6.10;99.90
9971;DHT22;5026;51.494;11.974;2024-03-06T09:07:35;6.00;99.90
9971;DHT22;5026;51.494;11.974;2024-03-06T09:10:04;6.40;99.90
9971;DHT22;5026;51.494;11.974;2024-03-06T09:12:32;6.70;99.90
9971;DHT22;5026;51.494;11.974;2024-03-06T09:15:01;6.30;99.90
9971;DHT22;5026;51.494;11.974;2024-03-06T09:17:29;6.60;99.90
9971;DHT22;5026;51.494;11.974;2024-03-06T09:19:56;6.60;99.90
9971;DHT22;5026;51.494;11.974;2024-03-06T09:22:23;6.60;99.90
9971;DHT22;5026;51.494;11.974;2024-03-06T09:24:50;6.90;99.90
9971;DHT22;5026;51.494;11.974;2024-03-06T09:27:17;6.70;99.90
9971;DHT22;5026;51.494;11.974;2024-03-06T09:29:44;6.10;99.90
9971;DHT22;5026;51.494;11.974;2024-03-06T09:32:13;7.20;99.90
9971;DHT22;5026;51.494;11.974;2024-03-06T09:34:41;7.90;99.90
9971;DHT22;5026;51.494;11.974;2024-03-06T09:37:10;7.10;99.90
9971;DHT22;5026;51.494;11.974;2024-03-06T09:39:37;6.90;99.90
9971;DHT22;5026;51.494;11.974;2024-03-06T09:42:04;6.90;99.90
9971;DHT22;5026;51.494;11.974;2024-03-06T09:44:31;7.20;99.90
9971;DHT22;5026;51.494;11.974;2024-03-06T09:47:00;7.30;99.90
9971;DHT22;5026;51.494;11.974;2024-03-06T09:49:31;7.30;99.90
9971;DHT22;5026;51.494;11.974;2024-03-06T09:51:58;7.00;99.90
9971;DHT22;5026;51.494;11.974;2024-03-06T09:54:26;6.70;99.90
9971;DHT22;5026;51.494;11.974;2024-03-06T09:56:53;6.90;99.90
9971;DHT22;5026;51.494;11.974;2024-03-06T09:59:23;7.10;99.90
9971;DHT22;5026;51.494;11.974;2024-03-06T10:01:53;7.40;99.90
9971;DHT22;5026;51.494;11.974;2024-03-06T10:04:21;7.30;99.90
9971;DHT22;5026;51.494;11.974;2024-03-06T10:06:50;7.10;99.90
9971;DHT22;5026;51.494;11.974;2024-03-06T10:09:18;6.70;99.90
9971;DHT22;5026;51.494;11.974;2024-03-06T10:11:45;6.80;99.90
9971;DHT22;5026;51.494;11.974;2024-03-06T10:14:13;6.90;99.90
9971;DHT22;5026;51.494;11.974;2024-03-06T10:16:52;6.60;99.90
9971;DHT22;5026;51.494;11.974;2024-03-06T10:19:19;6.60;99.90
9971;DHT22;5026;51.494;11.974;2024-03-06T10:21:49;6.70;99.90
9971;DHT22;5026;51.494;11.974;2024-03-06T10:24:20;6.90;99.90
9971;DHT22;5026;51.494;11.974;2024-03-06T10:26:49;6.90;99.90
9971;DHT22;5026;51.494;11.974;2024-03-06T10:29:17;6.90;99.90
9971;DHT22;5026;51.494;11.974;2024-03-06T10:31:48;7.00;99.90
9971;DHT22;5026;51.494;11.974;2024-03-06T10:34:16;7.00;99.90
9971;DHT22;5026;51.494;11.974;2024-03-06T10:36:43;7.20;99.90
9971;DHT22;5026;51.494;11.974;2024-03-06T10:39:12;7.30;99.90
9971;DHT22;5026;51.494;11.974;2024-03-06T10:41:40;7.40;99.90
9971;DHT22;5026;51.494;11.974;2024-03-06T10:44:12;7.60;99.90
9971;DHT22;5026;51.494;11.974;2024-03-06T10:46:43;7.50;99.90
9971;DHT22;5026;51.494;11.974;2024-03-06T10:49:13;7.50;99.90
9971;DHT22;5026;51.494;11.974;2024-03-06T10:51:40;7.30;99.90
9971;DHT22;5026;51.494;11.974;2024-03-06T10:54:12;7.30;99.90
9971;DHT22;5026;51.494;11.974;2024-03-06T10:56:40;7.10;99.90
9971;DHT22;5026;51.494;11.974;2024-03-06T10:59:10;7.20;99.90
9971;DHT22;5026;51.494;11.974;2024-03-06T11:01:39;7.40;99.90
9971;DHT22;5026;51.494;11.974;2024-03-06T11:04:09;7.50;99.90
9971;DHT22;5026;51.494;11.974;2024-03-06T11:06:38;7.60;99.90
9971;DHT22;5026;51.494;11.974;2024-03-06T11:09:05;7.70;99.90
9971;DHT22;5026;51.494;11.974;2024-03-06T11:11:48;7.70;99.90
9971;DHT22;5026;51.494;11.974;2024-03-06T11:14:15;7.60;99.90
9971;DHT22;5026;51.494;11.974;2024-03-06T11:16:58;7.60;99.90
9971;DHT22;5026;51.494;11.974;2024-03-06T11:19:25;7.70;99.90
9971;DHT22;5026;51.494;11.974;2024-03-06T11:21:52;7.70;99.90
9971;DHT22;5026;51.494;11.974;2024-03-06T11:24:21;7.80;99.90
9971;DHT22;5026;51.494;11.974;2024-03-06T11:27:00;7.90;99.90
9971;DHT22;5026;51.494;11.974;2024-03-06T11:29:29;8.10;99.90
9971;DHT22;5026;51.494;11.974;2024-03-06T11:32:05;8.10;99.90
9971;DHT22;5026;51.494;11.974;2024-03-06T11:34:35;8.10;99.90
9971;DHT22;5026;51.494;11.974;2024-03-06T11:37:06;8.90;99.90
9971;DHT22;5026;51.494;11.974;2024-03-06T11:39:35;8.00;99.90
9971;DHT22;5026;51.494;11.974;2024-03-06T11:42:04;7.90;99.90
9971;DHT22;5026;51.494;11.974;2024-03-06T11:44:34;7.90;99.90
9971;DHT22;5026;51.494;11.974;2024-03-06T11:47:03;8.00;99.90
9971;DHT22;5026;51.494;11.974;2024-03-06T11:49:33;8.10;99.90
9971;DHT22;5026;51.494;11.974;2024-03-06T11:52:01;8.10;99.90
9971;DHT22;5026;51.494;11.974;2024-03-06T11:54:30;8.20;99.90
9971;DHT22;5026;51.494;11.974;2024-03-06T11:56:58;8.50;99.90
9971;DHT22;5026;51.494;11.974;2024-03-06T11:59:27;8.60;99.90
9971;DHT22;5026;51.494;11.974;2024-03-06T12:01:56;8.60;99.90
9971;DHT22;5026;51.494;11.974;2024-03-06T12:04:24;8.60;99.90
9971;DHT22;5026;51.494;11.974;2024-03-06T12:06:51;8.70;99.90
9971;DHT22;5026;51.494;11.974;2024-03-06T12:09:18;8.80;99.90
9971;DHT22;5026;51.494;11.974;2024-03-06T12:11:45;8.60;99.90
9971;DHT22;5026;51.494;11.974;2024-03-06T12:14:16;8.70;99.90
9971;DHT22;5026;51.494;11.974;2024-03-06T12:16:54;8.50;99.90
9971;DHT22;5026;51.494;11.974;2024-03-06T12:19:22;8.90;99.90
9971;DHT22;5026;51.494;11.974;2024-03-06T12:21:49;9.00;99.90
9971;DHT22;5026;51.494;11.974;2024-03-06T12:24:16;9.20;99.90
9971;DHT22;5026;51.494;11.974;2024-03-06T12:26:44;9.20;99.90
9971;DHT22;5026;51.494;11.974;2024-03-06T12:29:17;9.10;99.90
9971;DHT22;5026;51.494;11.974;2024-03-06T12:31:47;8.70;99.90
9971;DHT22;5026;51.494;11.974;2024-03-06T12:34:14;8.50;99.90
9971;DHT22;5026;51.494;11.974;2024-03-06T12:36:43;8.50;99.90
9971;DHT22;5026;51.494;11.974;2024-03-06T12:39:09;8.70;99.90
9971;DHT22;5026;51.494;11.974;2024-03-06T12:41:39;8.70;99.90
9971;DHT22;5026;51.494;11.974;2024-03-06T12:44:06;8.80;99.90
9971;DHT22;5026;51.494;11.974;2024-03-06T12:46:33;9.00;99.90
9971;DHT22;5026;51.494;11.974;2024-03-06T12:49:02;8.70;99.60
9971;DHT22;5026;51.494;11.974;2024-03-06T12:51:29;8.80;99.90
9971;DHT22;5026;51.494;11.974;2024-03-06T12:53:57;8.90;99.70
9971;DHT22;5026;51.494;11.974;2024-03-06T12:56:24;8.70;99.20
9971;DHT22;5026;51.494;11.974;2024-03-06T12:58:51;8.70;98.50
9971;DHT22;5026;51.494;11.974;2024-03-06T13:01:18;8.60;98.00
9971;DHT22;5026;51.494;11.974;2024-03-06T13:03:46;8.70;98.10
9971;DHT22;5026;51.494;11.974;2024-03-06T13:06:14;8.70;97.60
9971;DHT22;5026;51.494;11.974;2024-03-06T13:08:41;8.80;98.30
9971;DHT22;5026;51.494;11.974;2024-03-06T13:11:08;8.70;97.80
9971;DHT22;5026;51.494;11.974;2024-03-06T13:13:35;10.60;98.30
9971;DHT22;5026;51.494;11.974;2024-03-06T13:16:03;8.90;98.60
9971;DHT22;5026;51.494;11.974;2024-03-06T13:18:30;8.90;98.10
9971;DHT22;5026;51.494;11.974;2024-03-06T13:20:57;8.80;98.10
9971;DHT22;5026;51.494;11.974;2024-03-06T13:23:27;8.80;96.60
9971;DHT22;5026;51.494;11.974;2024-03-06T13:25:54;8.80;97.40
9971;DHT22;5026;51.494;11.974;2024-03-06T13:28:21;8.90;97.40
9971;DHT22;5026;51.494;11.974;2024-03-06T13:30:49;9.00;97.60
9971;DHT22;5026;51.494;11.974;2024-03-06T13:33:17;9.10;97.20
9971;DHT22;5026;51.494;11.974;2024-03-06T13:35:44;9.00;97.60
9971;DHT22;5026;51.494;11.974;2024-03-06T13:38:11;8.90;97.80
9971;DHT22;5026;51.494;11.974;2024-03-06T13:40:39;8.90;97.70
9971;DHT22;5026;51.494;11.974;2024-03-06T13:43:06;8.90;97.30
9971;DHT22;5026;51.494;11.974;2024-03-06T13:45:34;8.80;96.80
9971;DHT22;5026;51.494;11.974;2024-03-06T13:48:13;8.90;96.80
9971;DHT22;5026;51.494;11.974;2024-03-06T13:50:40;8.90;96.90
9971;DHT22;5026;51.494;11.974;2024-03-06T13:53:09;9.00;96.80
9971;DHT22;5026;51.494;11.974;2024-03-06T13:55:36;8.80;96.70
9971;DHT22;5026;51.494;11.974;2024-03-06T13:58:05;8.80;97.10
9971;DHT22;5026;51.494;11.974;2024-03-06T14:00:32;8.90;96.80
9971;DHT22;5026;51.494;11.974;2024-03-06T14:03:00;9.10;97.00
9971;DHT22;5026;51.494;11.974;2024-03-06T14:05:27;8.90;96.80
9971;DHT22;5026;51.494;11.974;2024-03-06T14:07:54;9.50;97.20
9971;DHT22;5026;51.494;11.974;2024-03-06T14:10:22;8.90;97.30
9971;DHT22;5026;51.494;11.974;2024-03-06T14:12:49;8.80;96.20
9971;DHT22;5026;51.494;11.974;2024-03-06T14:15:19;8.80;96.20
9971;DHT22;5026;51.494;11.974;2024-03-06T14:17:48;8.80;96.00
9971;DHT22;5026;51.494;11.974;2024-03-06T14:20:14;8.80;95.80
9971;DHT22;5026;51.494;11.974;2024-03-06T14:22:42;8.90;95.60
9971;DHT22;5026;51.494;11.974;2024-03-06T14:25:10;8.90;95.60
9971;DHT22;5026;51.494;11.974;2024-03-06T14:27:37;8.70;95.40
9971;DHT22;5026;51.494;11.974;2024-03-06T14:30:05;8.70;95.80
9971;DHT22;5026;51.494;11.974;2024-03-06T14:32:34;8.80;95.80
9971;DHT22;5026;51.494;11.974;2024-03-06T14:35:01;8.80;95.70
9971;DHT22;5026;51.494;11.974;2024-03-06T14:37:28;8.70;95.30
9971;DHT22;5026;51.494;11.974;2024-03-06T14:39:55;8.50;95.10
9971;DHT22;5026;51.494;11.974;2024-03-06T14:42:22;8.50;95.10
9971;DHT22;5026;51.494;11.974;2024-03-06T14:44:50;8.50;95.20
9971;DHT22;5026;51.494;11.974;2024-03-06T14:47:17;8.50;95.30
9971;DHT22;5026;51.494;11.974;2024-03-06T14:49:45;8.60;95.50
9971;DHT22;5026;51.494;11.974;2024-03-06T14:52:12;8.60;95.50
9971;DHT22;5026;51.494;11.974;2024-03-06T14:54:39;8.50;95.40
9971;DHT22;5026;51.494;11.974;2024-03-06T14:57:06;8.40;95.30
9971;DHT22;5026;51.494;11.974;2024-03-06T14:59:33;8.40;95.50
9971;DHT22;5026;51.494;11.974;2024-03-06T15:02:01;8.40;95.20
9971;DHT22;5026;51.494;11.974;2024-03-06T15:04:29;8.30;95.40
9971;DHT22;5026;51.494;11.974;2024-03-06T15:06:57;8.30;95.40
9971;DHT22;5026;51.494;11.974;2024-03-06T15:09:25;8.40;95.60
9971;DHT22;5026;51.494;11.974;2024-03-06T15:11:53;8.40;95.60
9971;DHT22;5026;51.494;11.974;2024-03-06T15:14:21;8.50;95.70
9971;DHT22;5026;51.494;11.974;2024-03-06T15:16:48;8.40;95.90
9971;DHT22;5026;51.494;11.974;2024-03-06T15:19:15;8.40;95.90
9971;DHT22;5026;51.494;11.974;2024-03-06T15:21:42;8.30;95.80
9971;DHT22;5026;51.494;11.974;2024-03-06T15:24:11;8.20;95.80
9971;DHT22;5026;51.494;11.974;2024-03-06T15:26:38;8.30;96.10
9971;DHT22;5026;51.494;11.974;2024-03-06T15:29:05;8.30;96.10
9971;DHT22;5026;51.494;11.974;2024-03-06T15:31:32;8.30;96.20
9971;DHT22;5026;51.494;11.974;2024-03-06T15:33:59;8.20;96.30
9971;DHT22;5026;51.494;11.974;2024-03-06T15:36:27;8.20;96.50
9971;DHT22;5026;51.494;11.974;2024-03-06T15:38:54;8.20;96.50
9971;DHT22;5026;51.494;11.974;2024-03-06T15:41:24;8.20;96.40
9971;DHT22;5026;51.494;11.974;2024-03-06T15:43:51;8.00;96.00
9971;DHT22;5026;51.494;11.974;2024-03-06T15:46:18;8.00;96.30
9971;DHT22;5026;51.494;11.974;2024-03-06T15:48:44;8.00;96.50
9971;DHT22;5026;51.494;11.974;2024-03-06T15:51:12;8.00;96.70
9971;DHT22;5026;51.494;11.974;2024-03-06T15:53:39;8.00;96.70
9971;DHT22;5026;51.494;11.974;2024-03-06T15:56:06;8.00;96.80
9971;DHT22;5026;51.494;11.974;2024-03-06T15:58:35;7.90;96.90
9971;DHT22;5026;51.494;11.974;2024-03-06T16:01:03;7.90;96.60
9971;DHT22;5026;51.494;11.974;2024-03-06T16:03:30;7.80;96.80
9971;DHT22;5026;51.494;11.974;2024-03-06T16:05:58;7.80;96.70
9971;DHT22;5026;51.494;11.974;2024-03-06T16:08:24;7.90;97.00